Time;durP1;ratioP1;P1;durP2;ratioP2;P2;SDS_P1;SDS_P2;PMS_P1;PMS_P2;Temp;Humidity;BMP_temperature;BMP_pressure;BME280_temperature;BME280_humidity;BME280_pressure;Samples;Min_cycle;Max_cycle;Signal;HPM_P1;HPM_P2
2020/12/01 00:00:29;;;;;;;17.23;10.88;;;;;;;;;;5079578;28;20041;-61
2020/12/01 00:02:55;;;;;;;19.90;11.55;;;;;;;;;;5056269;28;20040;-60
2020/12/01 00:05:22;;;;;;;18.05;10.43;;;;;;;;;;5072948;28;20371;-61
2020/12/01 00:07:49;;;;;;;18.27;11.13;;;;;;;;;;5089152;28;20026;-61
2020/12/01 00:10:15;;;;;;;18.92;10.80;;;;;;;;;;5083010;28;20120;-61
2020/12/01 00:12:42;;;;;;;19.08;10.60;;;;;;;;;;5074362;28;20020;-59
2020/12/01 00:15:09;;;;;;;17.90;10.48;;;;;;;;;;5088846;28;20026;-60
2020/12/01 00:17:35;;;;;;;17.88;10.68;;;;;;;;;;5085581;28;20119;-61
2020/12/01 00:20:01;;;;;;;18.77;11.45;;;;;;;;;;5080674;28;20024;-60
2020/12/01 00:22:27;;;;;;;19.13;11.43;;;;;;;;;;5067900;28;20040;-60
2020/12/01 00:24:53;;;;;;;19.70;11.43;;;;;;;;;;5071179;28;20024;-59
2020/12/01 00:27:19;;;;;;;21.05;11.15;;;;;;;;;;5075133;28;20455;-61
2020/12/01 00:29:45;;;;;;;16.10;10.48;;;;;;;;;;5077474;28;20518;-61
2020/12/01 00:32:11;;;;;;;18.88;10.43;;;;;;;;;;5062053;28;20025;-60
2020/12/01 00:34:37;;;;;;;19.42;11.30;;;;;;;;;;5060622;28;20033;-61
2020/12/01 00:37:03;;;;;;;20.88;11.52;;;;;;;;;;5061363;28;20033;-61
2020/12/01 00:39:29;;;;;;;18.02;11.13;;;;;;;;;;5069136;28;20044;-61
2020/12/01 00:41:55;;;;;;;21.40;12.18;;;;;;;;;;5078755;28;20152;-60
2020/12/01 00:44:21;;;;;;;20.13;11.63;;;;;;;;;;5068472;28;20139;-61
2020/12/01 00:46:47;;;;;;;18.95;11.82;;;;;;;;;;5075583;28;20490;-61
2020/12/01 00:49:13;;;;;;;18.70;11.60;;;;;;;;;;5067173;28;20025;-61
2020/12/01 00:51:39;;;;;;;17.50;11.43;;;;;;;;;;5055714;28;20078;-60
2020/12/01 00:54:05;;;;;;;20.10;12.20;;;;;;;;;;5065229;28;20028;-60
2020/12/01 00:56:31;;;;;;;20.92;12.00;;;;;;;;;;5077941;28;20035;-60
2020/12/01 00:58:57;;;;;;;22.80;12.55;;;;;;;;;;5074972;28;20482;-61
2020/12/01 01:01:25;;;;;;;21.13;11.98;;;;;;;;;;5070564;28;20742;-61
2020/12/01 01:03:51;;;;;;;25.35;12.65;;;;;;;;;;5076650;28;20419;-61
2020/12/01 01:06:17;;;;;;;22.77;11.30;;;;;;;;;;5087965;28;20035;-61
2020/12/01 01:08:43;;;;;;;21.00;12.05;;;;;;;;;;5077784;28;20040;-60
2020/12/01 01:11:10;;;;;;;19.60;12.13;;;;;;;;;;5074031;28;20032;-61
2020/12/01 01:13:36;;;;;;;19.08;11.88;;;;;;;;;;5070464;28;20085;-61
2020/12/01 01:16:03;;;;;;;22.00;12.75;;;;;;;;;;5081531;28;20028;-61
2020/12/01 01:18:29;;;;;;;21.58;11.63;;;;;;;;;;5071040;28;20384;-61
2020/12/01 01:20:55;;;;;;;21.60;11.68;;;;;;;;;;5073179;28;20044;-61
2020/12/01 01:23:21;;;;;;;21.30;13.15;;;;;;;;;;5065929;28;21704;-60
2020/12/01 01:25:47;;;;;;;20.58;12.63;;;;;;;;;;5071149;28;20032;-60
2020/12/01 01:28:13;;;;;;;22.45;12.63;;;;;;;;;;5079925;28;20371;-60
2020/12/01 01:30:40;;;;;;;20.35;12.15;;;;;;;;;;5067459;28;20380;-61
2020/12/01 01:33:07;;;;;;;18.85;10.98;;;;;;;;;;5077942;28;20051;-61
2020/12/01 01:35:34;;;;;;;20.90;11.82;;;;;;;;;;5085714;28;20032;-61
2020/12/01 01:38:00;;;;;;;24.92;13.70;;;;;;;;;;5081796;28;20063;-61
2020/12/01 01:40:27;;;;;;;20.73;11.82;;;;;;;;;;5078143;28;20035;-61
2020/12/01 01:42:53;;;;;;;23.25;12.52;;;;;;;;;;5072467;28;20440;-61
2020/12/01 01:45:39;;;;;;;20.38;12.23;;;;;;;;;;5070985;28;20027;-61
2020/12/01 01:48:12;;;;;;;19.88;11.68;;;;;;;;;;5076900;28;20043;-61
2020/12/01 01:50:38;;;;;;;21.30;12.65;;;;;;;;;;5077693;28;20059;-59
2020/12/01 01:53:04;;;;;;;21.55;12.65;;;;;;;;;;5066588;28;20463;-61
2020/12/01 01:55:31;;;;;;;23.75;13.32;;;;;;;;;;5069948;28;20120;-60
2020/12/01 01:57:59;;;;;;;22.27;12.27;;;;;;;;;;5066935;28;20040;-61
2020/12/01 02:00:58;;;;;;;22.92;13.38;;;;;;;;;;5069833;28;20093;-61
2020/12/01 02:03:28;;;;;;;23.13;12.65;;;;;;;;;;5058951;28;20411;-61
2020/12/01 02:05:54;;;;;;;22.83;13.27;;;;;;;;;;5074297;28;20442;-61
2020/12/01 02:08:21;;;;;;;23.80;13.23;;;;;;;;;;5075035;28;20094;-59
2020/12/01 02:10:47;;;;;;;24.08;14.05;;;;;;;;;;5078117;28;20024;-60
2020/12/01 02:13:13;;;;;;;22.50;13.00;;;;;;;;;;5077266;28;20051;-60
2020/12/01 02:15:39;;;;;;;25.40;14.07;;;;;;;;;;5078742;28;20032;-60
2020/12/01 02:18:05;;;;;;;26.38;13.63;;;;;;;;;;5075643;28;20590;-60
2020/12/01 02:20:32;;;;;;;24.27;13.45;;;;;;;;;;5072265;28;20097;-61
2020/12/01 02:22:58;;;;;;;26.48;14.23;;;;;;;;;;5073323;28;20341;-57
2020/12/01 02:25:24;;;;;;;28.58;14.23;;;;;;;;;;5070502;28;20024;-59
2020/12/01 02:27:55;;;;;;;25.77;14.88;;;;;;;;;;5070149;28;20664;-59
2020/12/01 02:30:22;;;;;;;22.90;14.13;;;;;;;;;;5079461;28;20408;-59
2020/12/01 02:32:48;;;;;;;27.67;14.40;;;;;;;;;;5074895;28;20058;-60
2020/12/01 02:35:14;;;;;;;25.23;14.25;;;;;;;;;;5086606;28;20028;-56
2020/12/01 02:37:43;;;;;;;28.50;14.95;;;;;;;;;;5074749;28;20047;-59
2020/12/01 02:40:10;;;;;;;28.77;14.73;;;;;;;;;;5080378;28;20065;-58
2020/12/01 02:42:36;;;;;;;26.88;13.77;;;;;;;;;;5065310;28;20035;-59
2020/12/01 02:45:03;;;;;;;27.25;14.77;;;;;;;;;;5077958;28;20020;-56
2020/12/01 02:47:28;;;;;;;27.05;14.82;;;;;;;;;;5080986;28;20021;-59
2020/12/01 02:49:55;;;;;;;28.02;14.90;;;;;;;;;;5087829;28;20023;-59
2020/12/01 02:52:21;;;;;;;27.48;15.27;;;;;;;;;;5066525;28;20025;-57
2020/12/01 02:54:48;;;;;;;25.92;16.15;;;;;;;;;;5076235;28;20123;-59
2020/12/01 02:57:14;;;;;;;30.67;16.67;;;;;;;;;;5083338;28;20020;-58
2020/12/01 02:59:40;;;;;;;31.27;16.17;;;;;;;;;;5073571;28;20045;-59
2020/12/01 03:02:06;;;;;;;28.25;16.20;;;;;;;;;;5069803;28;20444;-57
2020/12/01 03:04:32;;;;;;;30.55;16.52;;;;;;;;;;5080672;28;20035;-57
2020/12/01 03:06:58;;;;;;;28.83;16.15;;;;;;;;;;5072359;28;20025;-57
2020/12/01 03:09:24;;;;;;;30.30;16.60;;;;;;;;;;5070747;28;20012;-59
2020/12/01 03:11:50;;;;;;;30.60;15.73;;;;;;;;;;5073513;28;20075;-60
2020/12/01 03:14:17;;;;;;;28.98;16.27;;;;;;;;;;5059898;28;20423;-60
2020/12/01 03:16:43;;;;;;;28.90;16.58;;;;;;;;;;5063331;28;20391;-58
2020/12/01 03:19:09;;;;;;;29.42;17.17;;;;;;;;;;5069275;28;20028;-59
2020/12/01 03:21:35;;;;;;;32.35;17.75;;;;;;;;;;5068736;28;20729;-58
2020/12/01 03:24:02;;;;;;;32.40;18.20;;;;;;;;;;5068826;28;20036;-59
2020/12/01 03:26:28;;;;;;;38.95;20.75;;;;;;;;;;5069006;28;20468;-59
2020/12/01 03:28:54;;;;;;;36.90;19.60;;;;;;;;;;5056460;28;20024;-57
2020/12/01 03:31:21;;;;;;;32.75;18.73;;;;;;;;;;5062692;28;20115;-59
2020/12/01 03:33:47;;;;;;;40.05;20.85;;;;;;;;;;5079860;28;20056;-59
2020/12/01 03:36:13;;;;;;;41.35;20.65;;;;;;;;;;5082922;28;20040;-58
2020/12/01 03:38:39;;;;;;;33.63;18.83;;;;;;;;;;5077264;28;20024;-58
2020/12/01 03:41:05;;;;;;;39.38;21.52;;;;;;;;;;5070131;28;20032;-60
2020/12/01 03:43:32;;;;;;;38.38;21.40;;;;;;;;;;5079646;28;20032;-59
2020/12/01 03:45:58;;;;;;;43.05;22.23;;;;;;;;;;5054211;28;20033;-59
2020/12/01 03:48:24;;;;;;;42.38;21.83;;;;;;;;;;5067457;28;20017;-59
2020/12/01 03:50:50;;;;;;;39.90;22.38;;;;;;;;;;5066378;28;20036;-59
2020/12/01 03:53:16;;;;;;;46.03;23.77;;;;;;;;;;5071476;28;20540;-60
2020/12/01 03:55:42;;;;;;;42.30;23.20;;;;;;;;;;5072869;28;20035;-59
2020/12/01 03:58:08;;;;;;;44.30;22.25;;;;;;;;;;5071267;28;20024;-59
2020/12/01 04:00:34;;;;;;;42.50;22.52;;;;;;;;;;5073969;28;20041;-59
2020/12/01 04:03:00;;;;;;;42.30;22.80;;;;;;;;;;5051283;28;20025;-59
2020/12/01 04:05:28;;;;;;;43.78;23.38;;;;;;;;;;5073337;28;20020;-58
2020/12/01 04:07:55;;;;;;;41.83;23.77;;;;;;;;;;5077643;28;20020;-59
2020/12/01 04:10:22;;;;;;;47.50;22.92;;;;;;;;;;5065766;28;20027;-58
2020/12/01 04:12:48;;;;;;;49.00;24.00;;;;;;;;;;5071166;28;20387;-59
2020/12/01 04:15:15;;;;;;;49.13;24.48;;;;;;;;;;5071175;28;20029;-58
2020/12/01 04:17:41;;;;;;;43.58;23.80;;;;;;;;;;5071184;28;20021;-56
2020/12/01 04:20:08;;;;;;;46.40;25.38;;;;;;;;;;5068029;28;20078;-58
2020/12/01 04:22:34;;;;;;;44.88;23.80;;;;;;;;;;5067979;28;20363;-59
2020/12/01 04:25:00;;;;;;;44.38;24.35;;;;;;;;;;5072484;28;20367;-59
2020/12/01 04:27:26;;;;;;;44.03;23.98;;;;;;;;;;5074026;28;20443;-58
2020/12/01 04:29:52;;;;;;;43.92;25.13;;;;;;;;;;5069965;28;20033;-59
2020/12/01 04:32:18;;;;;;;49.47;25.48;;;;;;;;;;5073729;28;20040;-59
2020/12/01 04:34:44;;;;;;;49.92;24.92;;;;;;;;;;5071346;28;20081;-58
2020/12/01 04:37:10;;;;;;;55.88;26.17;;;;;;;;;;5076447;28;20029;-58
2020/12/01 04:39:36;;;;;;;42.80;23.33;;;;;;;;;;5084781;28;20020;-60
2020/12/01 04:42:04;;;;;;;41.47;24.02;;;;;;;;;;5072951;28;20051;-56
2020/12/01 04:44:36;;;;;;;49.15;25.05;;;;;;;;;;5066721;28;20413;-59
2020/12/01 04:47:05;;;;;;;45.67;24.23;;;;;;;;;;5073561;28;20020;-59
2020/12/01 04:49:38;;;;;;;52.03;27.50;;;;;;;;;;5074754;28;20039;-58
2020/12/01 04:52:11;;;;;;;47.65;25.30;;;;;;;;;;5080862;28;20028;-59
2020/12/01 04:54:53;;;;;;;49.90;27.55;;;;;;;;;;5077183;28;20033;-59
2020/12/01 04:57:30;;;;;;;49.55;26.92;;;;;;;;;;5073794;28;20375;-58
2020/12/01 04:59:56;;;;;;;51.70;27.33;;;;;;;;;;5069997;28;20044;-57
2020/12/01 05:02:30;;;;;;;48.47;26.50;;;;;;;;;;5072755;28;20032;-57
2020/12/01 05:05:17;;;;;;;49.50;25.98;;;;;;;;;;5073852;28;20028;-58
2020/12/01 05:08:20;;;;;;;51.33;26.70;;;;;;;;;;5071137;28;20017;-59
2020/12/01 05:10:47;;;;;;;38.40;21.00;;;;;;;;;;5088156;28;20050;-58
2020/12/01 05:13:26;;;;;;;49.90;26.58;;;;;;;;;;5072904;28;20033;-59
2020/12/01 05:15:55;;;;;;;50.80;27.13;;;;;;;;;;5073821;28;20024;-58
2020/12/01 05:18:23;;;;;;;49.65;27.13;;;;;;;;;;5070098;28;20033;-56
2020/12/01 05:21:00;;;;;;;54.92;27.77;;;;;;;;;;5077033;28;20094;-58
2020/12/01 05:23:31;;;;;;;52.75;27.60;;;;;;;;;;5078623;28;20028;-59
2020/12/01 05:26:01;;;;;;;49.78;27.15;;;;;;;;;;5088894;28;20024;-57
2020/12/01 05:28:27;;;;;;;57.13;29.42;;;;;;;;;;5081859;28;20056;-59
2020/12/01 05:31:04;;;;;;;51.65;26.25;;;;;;;;;;5067434;28;20037;-59
2020/12/01 05:33:31;;;;;;;52.35;26.65;;;;;;;;;;5074354;28;20020;-58
2020/12/01 05:36:03;;;;;;;51.63;27.20;;;;;;;;;;5074469;28;20032;-59
2020/12/01 05:38:29;;;;;;;59.25;35.47;;;;;;;;;;5078531;28;20493;-57
2020/12/01 05:41:15;;;;;;;88.28;61.55;;;;;;;;;;5079507;28;20038;-56
2020/12/01 05:43:43;;;;;;;60.05;32.33;;;;;;;;;;5073407;28;20042;-59
2020/12/01 05:46:31;;;;;;;54.80;29.52;;;;;;;;;;5073870;28;20477;-59
2020/12/01 05:49:00;;;;;;;60.22;28.48;;;;;;;;;;5070977;28;20028;-55
2020/12/01 05:51:44;;;;;;;52.25;28.73;;;;;;;;;;5079510;28;20066;-60
2020/12/01 05:54:27;;;;;;;63.03;38.88;;;;;;;;;;5072454;28;20034;-59
2020/12/01 05:56:54;;;;;;;55.65;28.65;;;;;;;;;;5072736;28;20025;-59
2020/12/01 05:59:21;;;;;;;57.90;28.65;;;;;;;;;;5069754;28;20040;-59
2020/12/01 06:01:49;;;;;;;55.95;28.50;;;;;;;;;;5081740;28;20034;-57
2020/12/01 06:04:16;;;;;;;56.35;29.10;;;;;;;;;;5068292;28;20139;-57
2020/12/01 06:07:01;;;;;;;56.78;28.77;;;;;;;;;;5068462;28;20601;-59
2020/12/01 06:09:48;;;;;;;111.20;70.15;;;;;;;;;;5070029;28;20024;-58
2020/12/01 06:12:20;;;;;;;55.67;29.25;;;;;;;;;;5074179;28;20477;-59
2020/12/01 06:14:55;;;;;;;74.22;43.33;;;;;;;;;;5075334;28;20038;-57
2020/12/01 06:17:23;;;;;;;56.97;31.70;;;;;;;;;;5077175;28;20067;-60
2020/12/01 06:19:54;;;;;;;66.28;40.45;;;;;;;;;;5083981;28;20036;-59
2020/12/01 06:22:20;;;;;;;59.47;29.70;;;;;;;;;;5077734;28;20032;-60
2020/12/01 06:25:04;;;;;;;68.78;33.00;;;;;;;;;;5071278;28;20035;-59
2020/12/01 06:27:49;;;;;;;59.58;31.98;;;;;;;;;;5060722;28;20023;-59
2020/12/01 06:30:35;;;;;;;55.22;29.88;;;;;;;;;;5074680;28;20028;-59
2020/12/01 06:33:24;;;;;;;72.05;37.80;;;;;;;;;;5076833;28;20028;-59
2020/12/01 06:36:09;;;;;;;58.80;29.25;;;;;;;;;;5066428;28;20115;-59
2020/12/01 06:38:35;;;;;;;60.92;29.30;;;;;;;;;;5079213;28;20054;-59
2020/12/01 06:41:02;;;;;;;58.80;30.50;;;;;;;;;;5089551;28;20542;-59
2020/12/01 06:43:39;;;;;;;57.08;30.65;;;;;;;;;;5071549;28;20032;-57
2020/12/01 06:46:21;;;;;;;70.82;39.88;;;;;;;;;;5079782;28;20028;-59
2020/12/01 06:48:48;;;;;;;53.45;28.25;;;;;;;;;;5061671;28;20029;-59
2020/12/01 06:51:15;;;;;;;55.15;28.60;;;;;;;;;;5078615;28;20040;-57
2020/12/01 06:53:42;;;;;;;59.55;29.65;;;;;;;;;;5090091;28;20036;-61
2020/12/01 06:56:07;;;;;;;59.28;28.10;;;;;;;;;;5085149;28;20070;-60
2020/12/01 06:58:38;;;;;;;57.50;29.10;;;;;;;;;;5066809;28;20082;-59
2020/12/01 07:01:06;;;;;;;68.72;30.20;;;;;;;;;;5051667;28;20473;-59
2020/12/01 07:03:32;;;;;;;55.97;28.08;;;;;;;;;;5065979;28;20111;-61
2020/12/01 07:06:08;;;;;;;61.53;30.95;;;;;;;;;;5085859;28;20066;-61
2020/12/01 07:08:34;;;;;;;56.38;29.65;;;;;;;;;;5089863;28;20030;-61
2020/12/01 07:11:12;;;;;;;54.53;28.63;;;;;;;;;;5056121;28;20028;-60
2020/12/01 07:13:48;;;;;;;53.22;28.42;;;;;;;;;;5072067;28;20036;-61
2020/12/01 07:16:34;;;;;;;53.95;28.98;;;;;;;;;;5086007;28;20031;-61
2020/12/01 07:19:05;;;;;;;54.30;29.02;;;;;;;;;;5089645;28;20069;-60
2020/12/01 07:21:50;;;;;;;56.88;28.52;;;;;;;;;;5089557;28;20020;-61
2020/12/01 07:24:19;;;;;;;56.25;29.13;;;;;;;;;;5067566;28;20115;-61
2020/12/01 07:26:49;;;;;;;60.58;30.13;;;;;;;;;;5077511;28;20039;-60
2020/12/01 07:29:34;;;;;;;53.10;29.00;;;;;;;;;;5085869;28;20076;-60
2020/12/01 07:32:04;;;;;;;50.97;28.33;;;;;;;;;;5088863;28;20401;-60
2020/12/01 07:34:31;;;;;;;56.53;28.65;;;;;;;;;;5088753;28;20028;-61
2020/12/01 07:37:15;;;;;;;59.00;28.30;;;;;;;;;;5087773;28;20093;-59
2020/12/01 07:39:48;;;;;;;58.80;28.67;;;;;;;;;;5083959;28;20051;-60
2020/12/01 07:42:20;;;;;;;52.58;28.20;;;;;;;;;;5073338;28;20430;-61
2020/12/01 07:44:46;;;;;;;55.35;28.92;;;;;;;;;;5060215;28;20549;-60
2020/12/01 07:47:17;;;;;;;54.17;26.88;;;;;;;;;;5074083;28;20020;-60
2020/12/01 07:49:43;;;;;;;54.13;27.50;;;;;;;;;;5087271;28;20056;-60
2020/12/01 07:52:15;;;;;;;56.42;28.88;;;;;;;;;;5084536;28;20554;-61
2020/12/01 07:54:43;;;;;;;49.97;26.35;;;;;;;;;;5086874;28;20036;-61
2020/12/01 07:57:16;;;;;;;54.92;27.60;;;;;;;;;;5084273;28;20407;-61
2020/12/01 07:59:42;;;;;;;54.40;28.57;;;;;;;;;;5065224;28;20120;-61
2020/12/01 08:02:08;;;;;;;55.80;28.00;;;;;;;;;;5067746;28;20033;-62
2020/12/01 08:04:34;;;;;;;55.08;27.92;;;;;;;;;;5079078;28;20024;-60
2020/12/01 08:07:05;;;;;;;50.88;26.40;;;;;;;;;;5087282;28;20467;-61
2020/12/01 08:09:31;;;;;;;49.55;26.50;;;;;;;;;;5088706;28;20031;-61
2020/12/01 08:12:03;;;;;;;54.00;28.40;;;;;;;;;;5088441;28;20352;-60
2020/12/01 08:14:29;;;;;;;47.47;26.00;;;;;;;;;;5078927;28;20043;-61
2020/12/01 08:17:00;;;;;;;52.97;25.90;;;;;;;;;;5065467;28;20028;-61
2020/12/01 08:19:27;;;;;;;52.85;27.05;;;;;;;;;;5088721;28;20032;-61
2020/12/01 08:21:53;;;;;;;50.35;27.50;;;;;;;;;;5065099;28;20119;-61
2020/12/01 08:24:21;;;;;;;51.67;28.38;;;;;;;;;;5062613;28;20552;-61
2020/12/01 08:26:47;;;;;;;53.92;26.95;;;;;;;;;;5070137;28;20097;-60
2020/12/01 08:29:17;;;;;;;50.25;26.08;;;;;;;;;;5063951;28;20028;-60
2020/12/01 08:31:58;;;;;;;52.75;28.05;;;;;;;;;;5068008;28;20021;-61
2020/12/01 08:34:33;;;;;;;50.80;25.63;;;;;;;;;;5086481;28;20031;-61
2020/12/01 08:36:59;;;;;;;47.40;25.42;;;;;;;;;;5068805;28;20028;-60
2020/12/01 08:39:45;;;;;;;60.88;29.13;;;;;;;;;;5078236;28;20528;-61
2020/12/01 08:42:20;;;;;;;50.65;25.98;;;;;;;;;;5047473;28;20427;-60
2020/12/01 08:45:20;;;;;;;46.03;25.50;;;;;;;;;;5062858;28;20028;-61
2020/12/01 08:47:46;;;;;;;45.22;24.70;;;;;;;;;;5064720;28;20028;-61
2020/12/01 08:50:14;;;;;;;50.88;26.10;;;;;;;;;;5060662;28;20048;-61
2020/12/01 08:52:43;;;;;;;69.00;40.35;;;;;;;;;;5060795;28;20048;-61
2020/12/01 08:55:27;;;;;;;49.55;25.40;;;;;;;;;;5070082;28;20224;-61
2020/12/01 08:58:16;;;;;;;52.78;30.55;;;;;;;;;;5086235;28;20478;-61
2020/12/01 09:00:55;;;;;;;47.33;24.25;;;;;;;;;;5061545;28;20048;-61
2020/12/01 09:03:21;;;;;;;49.97;24.55;;;;;;;;;;5066680;28;20028;-57
2020/12/01 09:05:49;;;;;;;51.35;26.77;;;;;;;;;;5071901;28;20040;-60
2020/12/01 09:08:40;;;;;;;56.22;31.13;;;;;;;;;;5053659;28;20058;-60
2020/12/01 09:14:21;;;;;;;46.63;25.75;;;;;;;;;;5071375;28;20040;-59
2020/12/01 09:17:05;;;;;;;46.53;24.25;;;;;;;;;;5073389;28;20110;-59
2020/12/01 09:19:58;;;;;;;48.85;24.65;;;;;;;;;;5076059;28;20116;-59
2020/12/01 09:22:35;;;;;;;48.23;25.50;;;;;;;;;;5072022;28;20048;-59
2020/12/01 09:25:11;;;;;;;43.00;23.85;;;;;;;;;;5089735;28;20016;-57
2020/12/01 09:27:37;;;;;;;40.38;22.67;;;;;;;;;;5091830;28;20477;-59
2020/12/01 09:30:03;;;;;;;47.40;23.75;;;;;;;;;;5062651;28;20021;-60
2020/12/01 09:32:29;;;;;;;46.90;23.98;;;;;;;;;;5068081;28;20717;-59
2020/12/01 09:34:55;;;;;;;41.33;23.25;;;;;;;;;;5070843;28;20476;-60
2020/12/01 09:37:21;;;;;;;46.55;23.63;;;;;;;;;;5062900;28;20021;-60
2020/12/01 09:39:48;;;;;;;49.80;24.23;;;;;;;;;;5085910;28;20043;-60
2020/12/01 09:42:25;;;;;;;45.63;22.27;;;;;;;;;;5086053;28;20036;-60
2020/12/01 09:45:04;;;;;;;40.97;21.58;;;;;;;;;;5083597;28;20024;-58
2020/12/01 09:47:37;;;;;;;41.65;22.65;;;;;;;;;;5075955;28;20024;-59
2020/12/01 09:50:05;;;;;;;44.67;22.52;;;;;;;;;;5068571;28;20021;-58
2020/12/01 10:04:37;;;;;;;41.53;22.85;;;;;;;;;;5060830;28;20559;-57
2020/12/01 10:09:08;;;;;;;42.67;23.35;;;;;;;;;;5059909;28;20044;-60
2020/12/01 10:12:11;;;;;;;40.80;22.45;;;;;;;;;;5071487;28;20471;-58
2020/12/01 10:23:30;;;;;;;44.47;22.83;;;;;;;;;;5066686;28;20072;-60
2020/12/01 10:25:40;;;;;;;46.13;23.65;;;;;;;;;;5069373;28;20033;-60
2020/12/01 10:36:20;;;;;;;41.50;21.83;;;;;;;;;;5069704;28;20043;-58
2020/12/01 10:38:46;;;;;;;39.53;20.75;;;;;;;;;;5077991;28;20073;-59
2020/12/01 10:41:12;;;;;;;40.92;21.67;;;;;;;;;;5077826;28;20035;-59
2020/12/01 10:43:38;;;;;;;38.10;21.75;;;;;;;;;;5060038;28;20025;-59
2020/12/01 10:46:04;;;;;;;37.17;21.05;;;;;;;;;;5065250;28;20023;-60
2020/12/01 10:48:30;;;;;;;35.13;21.13;;;;;;;;;;5077884;28;20028;-59
2020/12/01 10:50:56;;;;;;;41.63;22.27;;;;;;;;;;5089490;28;20035;-59
2020/12/01 10:53:22;;;;;;;38.10;21.98;;;;;;;;;;5090177;28;20032;-60
2020/12/01 10:55:48;;;;;;;41.55;21.85;;;;;;;;;;5073058;28;20044;-60
2020/12/01 10:58:14;;;;;;;48.75;25.30;;;;;;;;;;5076588;28;20029;-59
2020/12/01 11:00:40;;;;;;;40.90;22.52;;;;;;;;;;5070770;28;20049;-58
2020/12/01 11:03:06;;;;;;;38.20;19.85;;;;;;;;;;5059348;28;20033;-59
2020/12/01 11:05:32;;;;;;;37.53;19.80;;;;;;;;;;5083328;28;20031;-59
2020/12/01 11:07:58;;;;;;;37.78;20.08;;;;;;;;;;5069039;28;20043;-59
2020/12/01 11:10:25;;;;;;;35.90;19.65;;;;;;;;;;5083691;28;20126;-59
2020/12/01 11:12:51;;;;;;;38.03;20.80;;;;;;;;;;5068773;28;20615;-59
2020/12/01 11:15:17;;;;;;;39.70;19.90;;;;;;;;;;5072700;28;20033;-59
2020/12/01 11:17:43;;;;;;;32.92;19.35;;;;;;;;;;5079115;28;20395;-59
2020/12/01 11:20:10;;;;;;;38.42;20.30;;;;;;;;;;5054568;28;20029;-59
2020/12/01 11:22:36;;;;;;;39.08;19.25;;;;;;;;;;5080169;28;20736;-57
2020/12/01 11:25:02;;;;;;;36.95;20.10;;;;;;;;;;5075311;28;20021;-59
2020/12/01 11:27:28;;;;;;;37.30;20.30;;;;;;;;;;5066940;28;20029;-59
2020/12/01 11:29:54;;;;;;;34.95;20.10;;;;;;;;;;5069062;28;20025;-59
2020/12/01 11:32:20;;;;;;;32.67;18.70;;;;;;;;;;5088362;28;20386;-59
2020/12/01 11:34:46;;;;;;;35.95;18.65;;;;;;;;;;5084618;28;20804;-57
2020/12/01 11:37:12;;;;;;;35.85;19.85;;;;;;;;;;5069422;28;20523;-59
2020/12/01 11:39:38;;;;;;;34.28;19.30;;;;;;;;;;5081754;28;20052;-59
2020/12/01 11:42:04;;;;;;;37.20;20.33;;;;;;;;;;5085555;28;20063;-60
2020/12/01 11:44:30;;;;;;;36.75;20.73;;;;;;;;;;5077214;28;20024;-59
2020/12/01 11:46:57;;;;;;;31.67;17.67;;;;;;;;;;5069578;28;20028;-59
2020/12/01 11:49:23;;;;;;;37.38;19.77;;;;;;;;;;5071357;28;20025;-59
2020/12/01 11:51:49;;;;;;;35.42;18.70;;;;;;;;;;5088197;28;20115;-59
2020/12/01 11:54:15;;;;;;;32.65;18.60;;;;;;;;;;5088972;28;20161;-59
2020/12/01 11:56:42;;;;;;;34.67;18.95;;;;;;;;;;5079508;28;20037;-59
2020/12/01 11:59:08;;;;;;;34.80;18.58;;;;;;;;;;5064133;28;20416;-59
2020/12/01 12:01:37;;;;;;;36.80;19.50;;;;;;;;;;5068093;28;20045;-57
2020/12/01 12:04:04;;;;;;;34.65;18.73;;;;;;;;;;5086168;28;20108;-59
2020/12/01 12:06:30;;;;;;;33.45;18.02;;;;;;;;;;5072597;28;20368;-59
2020/12/01 12:08:56;;;;;;;32.47;18.45;;;;;;;;;;5059579;28;20032;-58
2020/12/01 12:11:22;;;;;;;34.60;18.70;;;;;;;;;;5084645;28;20119;-59
2020/12/01 12:13:48;;;;;;;31.60;17.48;;;;;;;;;;5085633;28;20051;-59
2020/12/01 12:16:15;;;;;;;32.70;18.40;;;;;;;;;;5060615;28;20028;-59
2020/12/01 12:18:42;;;;;;;30.88;18.40;;;;;;;;;;5077366;28;20051;-58
2020/12/01 12:21:07;;;;;;;33.67;18.75;;;;;;;;;;5085362;28;20032;-59
2020/12/01 12:23:34;;;;;;;38.80;19.58;;;;;;;;;;5063966;28;20024;-59
2020/12/01 12:26:00;;;;;;;35.70;19.38;;;;;;;;;;5081190;28;20039;-59
2020/12/01 12:28:26;;;;;;;33.38;18.58;;;;;;;;;;5068536;28;20419;-59
2020/12/01 12:30:52;;;;;;;36.72;18.83;;;;;;;;;;5062719;28;20029;-59
2020/12/01 12:33:18;;;;;;;30.55;18.00;;;;;;;;;;5066600;28;20032;-59
2020/12/01 12:35:44;;;;;;;32.00;17.17;;;;;;;;;;5069357;28;20379;-59
2020/12/01 12:38:10;;;;;;;34.80;18.85;;;;;;;;;;5062185;28;20073;-57
2020/12/01 12:40:36;;;;;;;32.00;17.88;;;;;;;;;;5065500;28;20084;-59
2020/12/01 12:43:02;;;;;;;29.50;17.17;;;;;;;;;;5076371;28;20032;-59
2020/12/01 12:45:30;;;;;;;30.10;18.20;;;;;;;;;;5084808;28;20044;-59
2020/12/01 12:47:56;;;;;;;30.92;17.80;;;;;;;;;;5063259;28;20025;-58
2020/12/01 12:50:22;;;;;;;32.25;17.30;;;;;;;;;;5073229;28;20061;-60
2020/12/01 12:52:48;;;;;;;32.22;17.95;;;;;;;;;;5083578;28;20027;-59
2020/12/01 12:55:14;;;;;;;32.35;17.13;;;;;;;;;;5072397;28;20024;-59
2020/12/01 12:57:40;;;;;;;30.02;17.35;;;;;;;;;;5074071;28;20678;-59
2020/12/01 13:00:07;;;;;;;29.45;16.25;;;;;;;;;;5091873;28;20052;-59
2020/12/01 13:02:33;;;;;;;29.92;17.25;;;;;;;;;;5087605;28;20056;-60
2020/12/01 13:04:59;;;;;;;34.45;18.08;;;;;;;;;;5081648;28;20046;-58
2020/12/01 13:07:25;;;;;;;30.10;17.63;;;;;;;;;;5071903;28;20032;-58
2020/12/01 13:09:51;;;;;;;32.00;17.77;;;;;;;;;;5078913;28;20029;-59
2020/12/01 13:12:17;;;;;;;36.03;18.05;;;;;;;;;;5073256;28;20039;-59
2020/12/01 13:14:43;;;;;;;31.35;18.63;;;;;;;;;;5063268;28;20042;-59
2020/12/01 13:17:09;;;;;;;34.83;17.05;;;;;;;;;;5078476;28;20020;-59
2020/12/01 13:19:35;;;;;;;29.27;16.83;;;;;;;;;;5091569;28;20104;-60
2020/12/01 13:22:01;;;;;;;31.05;17.00;;;;;;;;;;5083292;28;20024;-59
2020/12/01 13:24:27;;;;;;;31.95;17.88;;;;;;;;;;5060424;28;20047;-60
2020/12/01 13:26:53;;;;;;;31.75;17.20;;;;;;;;;;5074134;28;20056;-59
2020/12/01 13:29:19;;;;;;;31.48;17.48;;;;;;;;;;5063311;28;20048;-57
2020/12/01 13:31:47;;;;;;;31.08;17.55;;;;;;;;;;5084528;28;20042;-59
2020/12/01 13:34:13;;;;;;;30.17;17.63;;;;;;;;;;5091272;28;20479;-59
2020/12/01 13:36:39;;;;;;;27.90;16.90;;;;;;;;;;5079862;28;20495;-59
2020/12/01 13:39:05;;;;;;;32.47;18.17;;;;;;;;;;5075025;28;20035;-59
2020/12/01 13:41:31;;;;;;;32.60;18.10;;;;;;;;;;5069858;28;20043;-59
2020/12/01 13:43:57;;;;;;;28.65;17.05;;;;;;;;;;5071550;28;20479;-59
2020/12/01 13:46:23;;;;;;;27.98;15.82;;;;;;;;;;5058948;28;20029;-60
2020/12/01 13:48:49;;;;;;;31.02;16.38;;;;;;;;;;5066082;28;20039;-60
2020/12/01 13:51:15;;;;;;;32.35;17.17;;;;;;;;;;5067025;28;20028;-59
2020/12/01 13:53:41;;;;;;;29.55;16.80;;;;;;;;;;5058470;28;20054;-59
2020/12/01 13:56:07;;;;;;;32.67;17.38;;;;;;;;;;5073058;28;20032;-59
2020/12/01 13:58:33;;;;;;;28.77;16.60;;;;;;;;;;5064289;28;20039;-59
2020/12/01 14:00:59;;;;;;;29.67;16.88;;;;;;;;;;5084757;28;20546;-58
2020/12/01 14:03:25;;;;;;;32.17;16.63;;;;;;;;;;5068406;28;20052;-58
2020/12/01 14:05:51;;;;;;;28.20;16.27;;;;;;;;;;5064656;28;20016;-58
2020/12/01 14:08:17;;;;;;;33.35;16.80;;;;;;;;;;5056598;28;20081;-59
2020/12/01 14:10:43;;;;;;;32.15;16.55;;;;;;;;;;5070756;28;20066;-58
2020/12/01 14:13:09;;;;;;;29.48;15.90;;;;;;;;;;5077009;28;20594;-58
2020/12/01 14:15:35;;;;;;;30.55;16.38;;;;;;;;;;5072455;28;20027;-59
2020/12/01 14:18:01;;;;;;;30.17;17.33;;;;;;;;;;5088504;28;20020;-59
2020/12/01 14:20:27;;;;;;;28.63;16.67;;;;;;;;;;5081949;28;20028;-60
2020/12/01 14:22:53;;;;;;;30.05;16.48;;;;;;;;;;5075378;28;20040;-58
2020/12/01 14:25:19;;;;;;;29.30;16.48;;;;;;;;;;5069795;28;20570;-59
2020/12/01 14:27:46;;;;;;;32.63;17.33;;;;;;;;;;5090204;28;20027;-59
2020/12/01 14:30:13;;;;;;;58.78;35.33;;;;;;;;;;5074672;28;20099;-58
2020/12/01 14:32:39;;;;;;;32.92;18.30;;;;;;;;;;5071198;28;20040;-59
2020/12/01 14:35:06;;;;;;;32.97;18.15;;;;;;;;;;5072528;28;22093;-59
2020/12/01 14:37:32;;;;;;;32.47;17.65;;;;;;;;;;5063745;28;20040;-60
2020/12/01 14:39:58;;;;;;;28.40;16.38;;;;;;;;;;5058857;28;20033;-56
2020/12/01 14:42:24;;;;;;;30.63;17.52;;;;;;;;;;5058130;28;20025;-58
2020/12/01 14:44:51;;;;;;;29.83;17.85;;;;;;;;;;5057790;28;20039;-59
2020/12/01 14:47:32;;;;;;;42.05;30.05;;;;;;;;;;5069060;28;20111;-59
2020/12/01 14:50:16;;;;;;;29.20;16.02;;;;;;;;;;5068789;28;20029;-59
2020/12/01 14:53:00;;;;;;;30.38;17.02;;;;;;;;;;5066692;28;20020;-59
2020/12/01 14:55:45;;;;;;;31.10;16.60;;;;;;;;;;5073311;28;20032;-59
2020/12/01 14:58:22;;;;;;;30.25;16.70;;;;;;;;;;5069087;28;20087;-59
2020/12/01 15:00:54;;;;;;;29.55;16.92;;;;;;;;;;5062272;28;20049;-59